createdAt,value
2023-01-24T00:01:22.870Z,38.36
2023-01-24T00:03:51.579Z,38.36
2023-01-24T00:06:19.942Z,38.37
2023-01-24T00:08:48.219Z,38.28
2023-01-24T00:11:16.446Z,38.34
2023-01-24T00:13:44.650Z,38.27
2023-01-24T00:16:19.171Z,38.39
2023-01-24T00:18:48.639Z,38.32
2023-01-24T00:21:19.677Z,38.05
2023-01-24T00:23:50.990Z,37.96
2023-01-24T00:26:20.395Z,37.98
2023-01-24T00:28:49.475Z,38.08
2023-01-24T00:31:18.323Z,38.14
2023-01-24T00:33:47.548Z,38.00
2023-01-24T00:36:15.778Z,37.95
2023-01-24T00:38:44.539Z,38.04
2023-01-24T00:41:12.725Z,38.10
2023-01-24T00:43:41.315Z,37.94
2023-01-24T00:46:10.114Z,38.04
2023-01-24T00:48:38.995Z,37.99
2023-01-24T00:51:07.739Z,38.01
2023-01-24T00:53:36.607Z,38.08
2023-01-24T00:56:08.207Z,38.03
2023-01-24T00:58:36.368Z,38.02
2023-01-24T01:01:05.089Z,37.96
2023-01-24T01:03:34.883Z,37.73
2023-01-24T01:06:10.496Z,37.86
2023-01-24T01:08:39.697Z,37.82
2023-01-24T01:11:08.530Z,37.95
2023-01-24T01:13:37.326Z,38.06
2023-01-24T01:16:15.163Z,38.01
2023-01-24T01:18:44.896Z,38.10
2023-01-24T01:21:16.876Z,38.10
2023-01-24T01:23:45.734Z,38.19
2023-01-24T01:26:20.810Z,38.02
2023-01-24T01:28:49.979Z,38.04
2023-01-24T01:31:18.221Z,38.16
2023-01-24T01:33:46.852Z,38.22
2023-01-24T01:36:15.373Z,38.09
2023-01-24T01:38:43.517Z,38.07
2023-01-24T01:41:15.824Z,38.14
2023-01-24T01:43:43.972Z,38.09
2023-01-24T01:46:24.657Z,38.17
2023-01-24T01:48:57.052Z,38.11
2023-01-24T01:51:32.817Z,38.24
2023-01-24T01:54:13.078Z,38.23
2023-01-24T01:56:50.643Z,38.13
2023-01-24T01:59:25.655Z,38.23
2023-01-24T02:01:56.950Z,38.25
2023-01-24T02:04:33.951Z,38.38
2023-01-24T02:07:11.290Z,38.50
2023-01-24T02:09:42.622Z,38.43
2023-01-24T02:12:14.873Z,38.58
2023-01-24T02:14:44.419Z,38.74
2023-01-24T02:17:12.804Z,38.62
2023-01-24T02:20:09.059Z,38.81
2023-01-24T02:23:02.294Z,38.70
2023-01-24T02:25:37.336Z,38.76
2023-01-24T02:28:07.697Z,38.78
2023-01-24T02:30:38.045Z,38.71
2023-01-24T02:33:14.675Z,38.73
2023-01-24T02:35:44.066Z,38.75
2023-01-24T02:38:32.788Z,38.70
2023-01-24T02:41:01.968Z,38.97
2023-01-24T02:43:32.176Z,38.85
2023-01-24T02:46:00.712Z,38.87
2023-01-24T02:48:29.963Z,39.01
2023-01-24T02:50:58.030Z,39.02
2023-01-24T02:53:26.677Z,39.03
2023-01-24T02:55:55.470Z,39.08
2023-01-24T02:58:24.002Z,39.20
2023-01-24T03:00:52.382Z,39.24
2023-01-24T03:03:20.661Z,39.25
2023-01-24T03:05:48.800Z,39.33
2023-01-24T03:08:16.995Z,39.45
2023-01-24T03:10:45.528Z,39.54
2023-01-24T03:13:14.331Z,39.72
2023-01-24T03:15:42.513Z,39.79
2023-01-24T03:18:10.791Z,39.89
2023-01-24T03:20:38.850Z,39.95
2023-01-24T03:23:07.510Z,40.12
2023-01-24T03:25:35.831Z,40.11
2023-01-24T03:28:06.220Z,40.24
2023-01-24T03:30:34.450Z,40.25
2023-01-24T03:33:04.534Z,40.41
2023-01-24T03:35:32.751Z,40.47
2023-01-24T03:38:01.611Z,40.72
2023-01-24T03:40:30.460Z,40.69
2023-01-24T03:43:00.939Z,40.78
2023-01-24T03:45:32.405Z,40.79
2023-01-24T03:48:07.695Z,40.96
2023-01-24T03:50:38.469Z,41.03
2023-01-24T03:53:08.594Z,41.21
2023-01-24T03:55:36.781Z,41.29
2023-01-24T03:58:07.113Z,41.39
2023-01-24T04:00:36.515Z,41.40
2023-01-24T04:03:04.972Z,41.60
2023-01-24T04:05:35.705Z,41.69
2023-01-24T04:08:04.663Z,41.89
2023-01-24T04:10:33.062Z,41.96
2023-01-24T04:13:01.583Z,42.09
2023-01-24T04:15:32.809Z,42.14
2023-01-24T04:18:03.721Z,42.44
2023-01-24T04:20:35.421Z,42.53
2023-01-24T04:23:07.172Z,42.70
2023-01-24T04:25:35.657Z,42.80
2023-01-24T04:28:03.873Z,42.86
2023-01-24T04:30:32.242Z,43.18
2023-01-24T04:33:01.967Z,43.30
2023-01-24T04:35:30.925Z,43.46
2023-01-24T04:38:02.236Z,43.79
2023-01-24T04:40:30.523Z,44.08
2023-01-24T04:42:59.282Z,44.43
2023-01-24T04:45:27.658Z,44.61
2023-01-24T04:47:55.979Z,44.79
2023-01-24T04:50:24.281Z,44.96
2023-01-24T04:52:52.962Z,45.14
2023-01-24T04:55:21.445Z,45.22
2023-01-24T04:57:50.003Z,45.27
2023-01-24T05:00:18.292Z,45.44
2023-01-24T05:02:46.643Z,45.75
2023-01-24T05:05:15.142Z,45.77
2023-01-24T05:07:43.230Z,45.75
2023-01-24T05:10:12.100Z,45.86
2023-01-24T05:12:41.283Z,46.15
2023-01-24T05:15:11.265Z,46.31
2023-01-24T05:17:39.565Z,46.40
2023-01-24T05:20:08.784Z,46.47
2023-01-24T05:22:37.608Z,46.64
2023-01-24T05:25:06.523Z,46.60
2023-01-24T05:27:35.074Z,46.56
2023-01-24T05:30:03.964Z,46.82
2023-01-24T05:32:32.067Z,46.83
2023-01-24T05:35:00.467Z,46.84
2023-01-24T05:37:29.269Z,46.93
2023-01-24T05:39:57.497Z,46.95
2023-01-24T05:42:25.632Z,46.96
2023-01-24T05:44:54.570Z,46.99
2023-01-24T05:47:23.510Z,46.97
2023-01-24T05:49:51.794Z,47.19
2023-01-24T05:52:20.396Z,47.20
2023-01-24T05:54:50.018Z,47.36
2023-01-24T05:57:19.953Z,47.67
2023-01-24T05:59:48.557Z,47.62
2023-01-24T06:02:16.752Z,47.77
2023-01-24T06:04:45.456Z,47.79
2023-01-24T06:07:13.561Z,47.73
2023-01-24T06:09:41.647Z,47.74
2023-01-24T06:12:10.370Z,47.98
2023-01-24T06:14:38.625Z,48.22
2023-01-24T06:17:07.137Z,48.18
2023-01-24T06:19:35.946Z,48.04
2023-01-24T06:22:06.740Z,48.16
2023-01-24T06:24:35.115Z,48.19
2023-01-24T06:27:04.284Z,48.18
2023-01-24T06:29:32.857Z,48.10
2023-01-24T06:32:06.562Z,47.99
2023-01-24T06:34:41.634Z,48.30
2023-01-24T06:37:28.409Z,48.37
2023-01-24T06:39:57.351Z,48.37
2023-01-24T06:42:26.727Z,48.37
2023-01-24T06:44:55.080Z,48.31
2023-01-24T06:47:23.232Z,48.36
2023-01-24T06:49:51.882Z,48.28
2023-01-24T06:52:19.969Z,48.44
2023-01-24T06:54:48.364Z,48.50
2023-01-24T06:57:16.408Z,48.71
2023-01-24T06:59:45.072Z,48.64
2023-01-24T07:02:13.385Z,48.76
2023-01-24T07:04:41.657Z,48.70
2023-01-24T07:07:10.291Z,48.76
2023-01-24T07:09:38.569Z,48.87
2023-01-24T07:12:06.805Z,49.06
2023-01-24T07:14:34.918Z,49.13
2023-01-24T07:17:03.561Z,49.25
2023-01-24T07:19:32.529Z,49.31
2023-01-24T07:22:01.348Z,49.18
2023-01-24T07:24:31.338Z,49.27
2023-01-24T07:26:59.699Z,49.18
2023-01-24T07:29:28.325Z,49.29
2023-01-24T07:31:56.601Z,49.14
2023-01-24T07:34:24.776Z,49.10
2023-01-24T07:36:53.544Z,49.22
2023-01-24T07:39:21.710Z,49.31
2023-01-24T07:41:49.919Z,49.24
2023-01-24T07:44:18.268Z,49.33
2023-01-24T07:46:46.307Z,49.39
2023-01-24T07:49:14.918Z,49.45
2023-01-24T07:51:44.136Z,49.44
2023-01-24T07:54:12.446Z,49.27
2023-01-24T07:56:41.118Z,49.27
2023-01-24T07:59:09.538Z,49.19
2023-01-24T08:01:37.649Z,49.42
2023-01-24T08:04:05.928Z,49.68
2023-01-24T08:06:34.278Z,49.84
2023-01-24T08:09:03.458Z,50.05
2023-01-24T08:11:31.833Z,50.29
2023-01-24T08:14:00.272Z,50.12
2023-01-24T08:16:30.564Z,50.17
2023-01-24T08:18:58.875Z,50.60
2023-01-24T08:21:27.073Z,50.93
2023-01-24T08:23:55.328Z,51.30
2023-01-24T08:26:23.523Z,51.51
2023-01-24T08:28:52.469Z,51.73
2023-01-24T08:31:21.238Z,51.71
2023-01-24T08:33:49.582Z,51.72
2023-01-24T08:36:17.753Z,51.62
2023-01-24T08:38:46.232Z,51.53
2023-01-24T08:41:15.292Z,51.32
2023-01-24T08:43:44.457Z,51.28
2023-01-24T08:46:12.639Z,51.29
2023-01-24T08:48:40.931Z,51.13
2023-01-24T08:51:09.375Z,51.21
2023-01-24T08:53:37.529Z,51.00
2023-01-24T08:56:06.239Z,50.98
2023-01-24T08:58:35.550Z,51.00
2023-01-24T09:01:10.717Z,50.66
2023-01-24T09:03:39.433Z,50.44
2023-01-24T09:06:08.342Z,51.34
2023-01-24T09:08:37.025Z,51.10
2023-01-24T09:11:05.653Z,48.88
2023-01-24T09:13:34.022Z,47.01
2023-01-24T09:16:02.221Z,45.70
2023-01-24T09:18:30.736Z,45.10
2023-01-24T09:21:03.707Z,45.03
2023-01-24T09:23:32.001Z,44.49
2023-01-24T09:26:00.190Z,44.62
2023-01-24T09:28:28.481Z,44.70
2023-01-24T09:30:56.802Z,44.44
2023-01-24T09:33:24.986Z,44.39
2023-01-24T09:35:58.890Z,44.07
2023-01-24T09:38:29.479Z,44.12
2023-01-24T09:41:27.515Z,44.19
2023-01-24T09:44:11.675Z,44.24
2023-01-24T09:46:51.835Z,44.36
2023-01-24T09:49:40.761Z,44.55
2023-01-24T09:52:15.961Z,44.13
2023-01-24T09:55:42.890Z,44.03
2023-01-24T09:58:37.996Z,44.20
2023-01-24T10:01:14.044Z,44.56
2023-01-24T10:03:51.206Z,44.63
2023-01-24T10:06:24.822Z,44.48
2023-01-24T10:09:27.535Z,44.38
2023-01-24T10:11:58.579Z,44.55
2023-01-24T10:14:53.653Z,44.64
2023-01-24T10:17:53.718Z,44.85
2023-01-24T10:20:31.618Z,45.68
2023-01-24T10:23:16.577Z,46.46
2023-01-24T10:26:13.052Z,47.08
2023-01-24T10:28:47.894Z,47.52
2023-01-24T10:31:28.355Z,47.69
2023-01-24T10:34:19.986Z,48.18
2023-01-24T10:37:10.553Z,48.22
2023-01-24T10:39:39.382Z,48.11
2023-01-24T10:42:28.641Z,47.85
2023-01-24T10:45:01.796Z,47.67
2023-01-24T10:47:56.252Z,47.60
2023-01-24T10:50:24.897Z,47.08
2023-01-24T10:52:53.110Z,46.13
2023-01-24T10:55:36.186Z,45.22
2023-01-24T10:58:46.478Z,45.06
2023-01-24T11:01:21.395Z,43.78
2023-01-24T11:03:51.840Z,41.57
2023-01-24T11:06:38.298Z,39.57
2023-01-24T11:09:15.174Z,38.21
2023-01-24T11:11:50.284Z,37.96
2023-01-24T11:14:26.072Z,37.12
2023-01-24T11:16:57.490Z,37.33
2023-01-24T11:19:36.442Z,36.75
2023-01-24T11:22:25.179Z,34.89
2023-01-24T11:24:59.826Z,33.52
2023-01-24T11:27:28.463Z,33.00
2023-01-24T11:30:18.470Z,32.86
2023-01-24T11:33:08.317Z,33.12
2023-01-24T11:35:45.859Z,32.32
2023-01-24T11:38:14.104Z,32.20
2023-01-24T11:41:00.159Z,31.15
2023-01-24T11:43:37.167Z,30.42
2023-01-24T11:46:21.168Z,30.63
2023-01-24T11:48:54.990Z,29.82
2023-01-24T11:51:35.620Z,29.82
2023-01-24T11:54:03.739Z,30.34
2023-01-24T11:57:00.556Z,30.58
2023-01-24T12:00:02.703Z,31.33
2023-01-24T12:02:42.792Z,31.82
2023-01-24T12:05:29.436Z,31.60
2023-01-24T12:08:20.439Z,31.59
2023-01-24T12:11:35.363Z,31.60
2023-01-24T12:14:41.059Z,31.96
2023-01-24T12:17:30.370Z,32.62
2023-01-24T12:20:43.697Z,33.37
2023-01-24T12:23:16.728Z,34.39
2023-01-24T12:25:47.867Z,34.74
2023-01-24T12:28:30.003Z,35.12
2023-01-24T12:31:01.755Z,35.23
2023-01-24T12:33:39.129Z,35.76
2023-01-24T12:36:14.545Z,36.07
2023-01-24T12:38:48.038Z,36.34
2023-01-24T12:41:32.844Z,36.51
2023-01-24T12:44:04.326Z,36.29
2023-01-24T12:47:13.803Z,36.45
2023-01-24T12:50:04.521Z,37.01
2023-01-24T12:52:55.869Z,37.12
2023-01-24T12:55:36.353Z,37.73
2023-01-24T12:58:44.454Z,37.88
2023-01-24T13:01:36.510Z,38.47
2023-01-24T13:04:17.593Z,38.54
2023-01-24T13:07:07.307Z,39.00
2023-01-24T13:10:06.926Z,39.58
2023-01-24T13:12:35.274Z,39.87
2023-01-24T13:15:18.043Z,39.76
2023-01-24T13:18:13.999Z,39.36
2023-01-24T13:21:00.355Z,39.46
2023-01-24T13:23:47.853Z,39.47
2023-01-24T13:26:27.048Z,40.10
2023-01-24T13:29:04.548Z,40.40
2023-01-24T13:32:18.751Z,41.49
2023-01-24T13:34:58.596Z,41.64
2023-01-24T13:37:32.350Z,41.93
2023-01-24T13:40:06.523Z,42.09
2023-01-24T13:42:37.756Z,42.32
2023-01-24T13:45:27.405Z,42.22
2023-01-24T13:47:57.615Z,42.19
2023-01-24T13:50:30.684Z,41.80
2023-01-24T13:53:00.694Z,41.22
2023-01-24T13:55:41.138Z,40.92
2023-01-24T13:58:09.181Z,40.98
2023-01-24T14:00:43.181Z,40.82
2023-01-24T14:03:22.826Z,41.03
2023-01-24T14:05:57.882Z,40.83
2023-01-24T14:08:25.921Z,40.24
2023-01-24T14:11:16.762Z,40.59
2023-01-24T14:13:47.932Z,40.98
2023-01-24T14:16:26.073Z,40.58
2023-01-24T14:19:09.315Z,40.83
2023-01-24T14:21:52.210Z,40.61
2023-01-24T14:24:35.044Z,40.83
2023-01-24T14:27:23.301Z,40.99
2023-01-24T14:30:14.627Z,40.45
2023-01-24T14:32:48.735Z,40.67
2023-01-24T14:35:24.310Z,40.53
2023-01-24T14:37:52.978Z,40.15
2023-01-24T14:40:27.918Z,39.92
2023-01-24T14:43:05.219Z,39.68
2023-01-24T14:45:35.220Z,40.07
2023-01-24T14:48:10.150Z,39.98
2023-01-24T14:50:39.854Z,39.35
2023-01-24T14:53:32.386Z,39.09
2023-01-24T14:56:11.669Z,38.87
2023-01-24T14:58:40.252Z,38.67
2023-01-24T15:01:45.217Z,38.74
2023-01-24T15:04:32.121Z,39.26
2023-01-24T15:07:06.405Z,39.88
2023-01-24T15:09:34.929Z,40.44
2023-01-24T15:12:42.615Z,40.44
2023-01-24T15:15:19.350Z,40.92
2023-01-24T15:17:49.985Z,41.95
2023-01-24T15:20:22.074Z,41.95
2023-01-24T15:22:53.737Z,41.88
2023-01-24T15:25:34.120Z,41.45
2023-01-24T15:28:23.931Z,42.01
2023-01-24T15:31:00.302Z,41.91
2023-01-24T15:33:54.339Z,42.08
2023-01-24T15:36:32.391Z,42.10
2023-01-24T15:39:01.930Z,41.74
2023-01-24T15:41:37.280Z,41.93
2023-01-24T15:44:09.063Z,42.38
2023-01-24T15:46:42.611Z,42.66
2023-01-24T15:49:33.919Z,42.94
2023-01-24T15:52:06.542Z,43.58
2023-01-24T15:54:36.140Z,44.03
2023-01-24T15:57:14.326Z,44.13
2023-01-24T15:59:47.843Z,44.47
2023-01-24T16:02:16.465Z,44.50
2023-01-24T16:04:47.136Z,44.61
2023-01-24T16:07:16.580Z,44.88
2023-01-24T16:09:46.796Z,44.75
2023-01-24T16:12:17.579Z,44.75
2023-01-24T16:15:07.099Z,45.15
2023-01-24T16:17:36.122Z,45.14
2023-01-24T16:20:16.449Z,44.95
2023-01-24T16:22:44.982Z,44.96
2023-01-24T16:25:14.933Z,44.79
2023-01-24T16:27:43.244Z,44.56
2023-01-24T16:30:19.170Z,44.73
2023-01-24T16:32:48.068Z,44.71
2023-01-24T16:35:17.081Z,44.59
2023-01-24T16:37:46.316Z,44.57
2023-01-24T16:40:17.189Z,44.78
2023-01-24T16:42:48.225Z,44.87
2023-01-24T16:45:20.533Z,44.79
2023-01-24T16:47:48.868Z,44.75
2023-01-24T16:50:17.695Z,45.01
2023-01-24T16:52:46.614Z,45.22
2023-01-24T16:55:15.818Z,45.98
2023-01-24T16:57:44.448Z,45.73
2023-01-24T17:00:17.533Z,45.31
2023-01-24T17:02:50.918Z,45.58
2023-01-24T17:05:19.653Z,45.49
2023-01-24T17:07:50.894Z,45.31
2023-01-24T17:10:19.269Z,45.29
2023-01-24T17:12:47.934Z,45.45
2023-01-24T17:15:17.969Z,45.57
2023-01-24T17:17:46.849Z,45.61
2023-01-24T17:20:15.912Z,45.41
2023-01-24T17:22:44.002Z,45.13
2023-01-24T17:25:12.290Z,45.46
2023-01-24T17:27:40.495Z,45.38
2023-01-24T17:30:09.378Z,45.63
2023-01-24T17:32:38.588Z,45.64
2023-01-24T17:35:07.558Z,45.35
2023-01-24T17:37:36.199Z,45.08
2023-01-24T17:40:06.104Z,45.05
2023-01-24T17:42:35.927Z,44.47
2023-01-24T17:45:04.376Z,43.90
2023-01-24T17:47:32.571Z,43.64
2023-01-24T17:50:00.802Z,43.06
2023-01-24T17:52:28.902Z,43.04
2023-01-24T17:54:58.205Z,42.71
2023-01-24T17:57:26.708Z,42.80
2023-01-24T17:59:54.797Z,42.42
2023-01-24T18:02:23.128Z,42.26
2023-01-24T18:04:51.307Z,42.05
2023-01-24T18:07:19.400Z,41.93
2023-01-24T18:09:48.233Z,41.79
2023-01-24T18:12:16.922Z,41.80
2023-01-24T18:14:45.085Z,41.93
2023-01-24T18:17:13.326Z,42.03
2023-01-24T18:19:41.509Z,41.83
2023-01-24T18:22:09.598Z,41.81
2023-01-24T18:24:38.062Z,41.86
2023-01-24T18:27:06.295Z,42.00
2023-01-24T18:29:34.372Z,42.04
2023-01-24T18:32:02.597Z,42.00
2023-01-24T18:34:30.751Z,42.34
2023-01-24T18:36:58.856Z,41.99
2023-01-24T18:39:27.385Z,42.15
2023-01-24T18:41:55.782Z,42.11
2023-01-24T18:44:23.921Z,42.22
2023-01-24T18:46:52.052Z,42.12
2023-01-24T18:49:20.725Z,42.15
2023-01-24T18:51:49.447Z,42.12
2023-01-24T18:54:18.607Z,42.19
2023-01-24T18:56:46.822Z,42.08
2023-01-24T18:59:14.921Z,42.17
2023-01-24T19:01:43.837Z,42.16
2023-01-24T19:04:11.955Z,41.97
2023-01-24T19:06:40.157Z,41.99
2023-01-24T19:09:09.496Z,41.96
2023-01-24T19:11:40.568Z,41.82
2023-01-24T19:14:13.776Z,42.01
2023-01-24T19:16:43.461Z,41.83
2023-01-24T19:19:18.055Z,41.86
2023-01-24T19:21:46.752Z,41.85
2023-01-24T19:24:15.722Z,42.00
2023-01-24T19:26:44.326Z,42.02
2023-01-24T19:29:12.533Z,42.13
2023-01-24T19:31:42.302Z,42.25
2023-01-24T19:34:11.180Z,42.08
2023-01-24T19:36:39.335Z,42.28
2023-01-24T19:39:12.540Z,42.20
2023-01-24T19:41:40.915Z,42.22
2023-01-24T19:44:24.330Z,42.16
2023-01-24T19:46:53.096Z,42.19
2023-01-24T19:49:21.180Z,42.12
2023-01-24T19:51:49.562Z,42.26
2023-01-24T19:54:17.949Z,42.36
2023-01-24T19:56:46.778Z,42.26
2023-01-24T19:59:14.814Z,42.51
2023-01-24T20:01:43.455Z,42.55
2023-01-24T20:04:27.564Z,42.57
2023-01-24T20:06:56.771Z,42.56
2023-01-24T20:09:25.109Z,42.57
2023-01-24T20:11:53.614Z,42.55
2023-01-24T20:14:23.194Z,42.53
2023-01-24T20:16:51.559Z,42.53
2023-01-24T20:19:28.168Z,42.62
2023-01-24T20:21:59.970Z,42.64
2023-01-24T20:24:29.289Z,42.82
2023-01-24T20:26:57.640Z,42.78
2023-01-24T20:29:26.390Z,42.93
2023-01-24T20:31:54.964Z,42.96
2023-01-24T20:34:24.208Z,42.98
2023-01-24T20:36:52.867Z,43.07
2023-01-24T20:39:21.292Z,43.17
2023-01-24T20:41:51.309Z,43.19
2023-01-24T20:44:26.993Z,43.22
2023-01-24T20:46:58.698Z,43.25
2023-01-24T20:49:27.058Z,43.40
2023-01-24T20:51:55.562Z,43.44
2023-01-24T20:54:24.352Z,43.46
2023-01-24T20:56:52.747Z,43.57
2023-01-24T20:59:20.932Z,43.61
2023-01-24T21:01:49.733Z,43.71
2023-01-24T21:04:18.785Z,43.73
2023-01-24T21:06:47.119Z,43.72
2023-01-24T21:09:15.956Z,43.84
2023-01-24T21:11:44.427Z,43.86
2023-01-24T21:14:14.040Z,43.94
2023-01-24T21:16:42.345Z,44.01
2023-01-24T21:19:14.057Z,43.98
2023-01-24T21:21:42.286Z,44.15
2023-01-24T21:24:30.853Z,44.22
2023-01-24T21:27:02.312Z,44.23
2023-01-24T21:29:31.182Z,44.49
2023-01-24T21:32:00.699Z,44.54
2023-01-24T21:34:29.074Z,44.58
2023-01-24T21:36:58.157Z,44.63
2023-01-24T21:39:26.503Z,44.69
2023-01-24T21:41:55.910Z,44.78
2023-01-24T21:44:27.994Z,44.80
2023-01-24T21:46:56.197Z,44.98
2023-01-24T21:49:25.744Z,45.00
2023-01-24T21:52:01.369Z,45.13
2023-01-24T21:54:32.328Z,45.14
2023-01-24T21:57:17.397Z,45.19
2023-01-24T21:59:52.290Z,45.26
2023-01-24T22:02:25.559Z,45.48
2023-01-24T22:04:55.318Z,45.41
2023-01-24T22:07:25.569Z,45.61
2023-01-24T22:09:55.413Z,45.60
2023-01-24T22:12:24.352Z,45.67
2023-01-24T22:14:53.735Z,45.80
2023-01-24T22:17:23.945Z,45.82
2023-01-24T22:19:56.259Z,45.82
2023-01-24T22:22:33.523Z,46.08
2023-01-24T22:25:06.153Z,46.31
2023-01-24T22:27:35.073Z,46.38
2023-01-24T22:30:04.146Z,46.33
2023-01-24T22:32:33.187Z,46.62
2023-01-24T22:35:02.262Z,46.67
2023-01-24T22:37:38.204Z,46.67
2023-01-24T22:40:11.337Z,46.80
2023-01-24T22:42:39.840Z,46.87
2023-01-24T22:45:08.702Z,47.00
2023-01-24T22:47:37.082Z,46.98
2023-01-24T22:50:05.765Z,47.14
2023-01-24T22:52:35.373Z,47.02
2023-01-24T22:55:03.804Z,47.28
2023-01-24T22:57:32.028Z,47.45
2023-01-24T23:00:06.432Z,47.30
2023-01-24T23:02:35.454Z,47.65
2023-01-24T23:05:03.877Z,47.67
2023-01-24T23:07:31.959Z,47.84
2023-01-24T23:10:00.288Z,47.92
2023-01-24T23:12:28.349Z,47.90
2023-01-24T23:14:56.474Z,48.01
2023-01-24T23:17:25.078Z,47.90
2023-01-24T23:19:53.446Z,47.96
2023-01-24T23:22:25.379Z,48.05
2023-01-24T23:24:53.919Z,48.07
2023-01-24T23:27:30.539Z,48.16
2023-01-24T23:30:16.904Z,48.32
2023-01-24T23:32:51.643Z,48.36
2023-01-24T23:35:19.702Z,48.58
2023-01-24T23:37:48.013Z,48.77
2023-01-24T23:40:17.489Z,48.69
2023-01-24T23:42:45.838Z,48.72
2023-01-24T23:45:19.624Z,48.80
2023-01-24T23:47:48.086Z,48.80
2023-01-24T23:50:16.438Z,48.80
2023-01-24T23:52:44.665Z,48.71
2023-01-24T23:55:12.873Z,48.84
2023-01-24T23:57:41.095Z,49.03
